sensor_id;sensor_type;location;lat;lon;timestamp;pressure;altitude;pressure_sealevel;temperature;humidity
70229;BME280;57617;51.988;5.854;2023-03-16T00:00:27;101361.91;;;7.77;51.49
70229;BME280;57617;51.988;5.854;2023-03-16T00:02:52;101361.47;;;7.80;51.85
70229;BME280;57617;51.988;5.854;2023-03-16T00:05:17;101344.22;;;7.68;51.44
70229;BME280;57617;51.988;5.854;2023-03-16T00:07:43;101364.41;;;7.79;51.70
70229;BME280;57617;51.988;5.854;2023-03-16T00:10:11;101360.88;;;7.78;51.75
70229;BME280;57617;51.988;5.854;2023-03-16T00:12:36;101363.78;;;7.83;51.59
70229;BME280;57617;51.988;5.854;2023-03-16T00:15:02;101361.72;;;7.79;51.74
70229;BME280;57617;51.988;5.854;2023-03-16T00:17:28;101362.72;;;7.78;51.51
70229;BME280;57617;51.988;5.854;2023-03-16T00:19:55;101375.00;;;7.87;52.41
70229;BME280;57617;51.988;5.854;2023-03-16T00:22:26;101383.50;;;7.90;51.74
70229;BME280;57617;51.988;5.854;2023-03-16T00:24:52;101376.66;;;7.94;51.54
70229;BME280;57617;51.988;5.854;2023-03-16T00:27:17;101371.03;;;7.89;52.13
70229;BME280;57617;51.988;5.854;2023-03-16T00:29:45;101368.34;;;7.89;52.50
70229;BME280;57617;51.988;5.854;2023-03-16T00:32:19;101361.69;;;7.92;52.21
70229;BME280;57617;51.988;5.854;2023-03-16T00:34:45;101352.50;;;7.93;52.18
70229;BME280;57617;51.988;5.854;2023-03-16T00:37:13;101342.94;;;7.90;51.94
70229;BME280;57617;51.988;5.854;2023-03-16T00:39:40;101355.22;;;7.93;52.49
70229;BME280;57617;51.988;5.854;2023-03-16T00:42:06;101353.16;;;7.95;51.81
70229;BME280;57617;51.988;5.854;2023-03-16T00:44:31;101344.19;;;7.94;52.29
70229;BME280;57617;51.988;5.854;2023-03-16T00:46:57;101341.09;;;7.97;52.02
70229;BME280;57617;51.988;5.854;2023-03-16T00:49:22;101334.03;;;7.96;52.16
70229;BME280;57617;51.988;5.854;2023-03-16T00:51:47;101318.41;;;7.92;52.32
70229;BME280;57617;51.988;5.854;2023-03-16T00:54:13;101333.56;;;7.99;52.13
70229;BME280;57617;51.988;5.854;2023-03-16T00:56:38;101324.66;;;7.99;52.18
70229;BME280;57617;51.988;5.854;2023-03-16T00:59:03;101306.34;;;7.94;52.18
70229;BME280;57617;51.988;5.854;2023-03-16T01:01:30;101306.53;;;7.99;52.05
70229;BME280;57617;51.988;5.854;2023-03-16T01:03:57;101295.50;;;7.94;52.30
70229;BME280;57617;51.988;5.854;2023-03-16T01:06:24;101309.44;;;7.98;52.17
70229;BME280;57617;51.988;5.854;2023-03-16T01:08:50;101305.94;;;7.97;52.25
70229;BME280;57617;51.988;5.854;2023-03-16T01:11:20;101304.88;;;7.98;52.85
70229;BME280;57617;51.988;5.854;2023-03-16T01:13:48;101297.59;;;7.99;52.92
70229;BME280;57617;51.988;5.854;2023-03-16T01:16:16;101319.00;;;8.00;52.71
70229;BME280;57617;51.988;5.854;2023-03-16T01:18:43;101303.41;;;8.02;52.81
70229;BME280;57617;51.988;5.854;2023-03-16T01:21:09;101295.91;;;7.98;53.13
70229;BME280;57617;51.988;5.854;2023-03-16T01:23:37;101291.75;;;7.95;53.40
70229;BME280;57617;51.988;5.854;2023-03-16T01:26:03;101293.00;;;7.93;53.44
70229;BME280;57617;51.988;5.854;2023-03-16T01:28:30;101280.53;;;7.92;53.23
70229;BME280;57617;51.988;5.854;2023-03-16T01:31:03;101283.03;;;7.93;53.80
70229;BME280;57617;51.988;5.854;2023-03-16T01:33:29;101284.28;;;7.91;53.58
70229;BME280;57617;51.988;5.854;2023-03-16T01:36:04;101289.06;;;7.95;53.55
70229;BME280;57617;51.988;5.854;2023-03-16T01:38:30;101281.78;;;7.89;52.94
70229;BME280;57617;51.988;5.854;2023-03-16T01:40:55;101281.19;;;7.94;53.38
70229;BME280;57617;51.988;5.854;2023-03-16T01:43:23;101273.06;;;7.94;52.78
70229;BME280;57617;51.988;5.854;2023-03-16T01:51:17;101263.91;;;7.88;53.40
70229;BME280;57617;51.988;5.854;2023-03-16T01:53:46;101255.19;;;7.86;53.93
70229;BME280;57617;51.988;5.854;2023-03-16T01:56:15;101255.19;;;7.86;54.29
70229;BME280;57617;51.988;5.854;2023-03-16T01:58:43;101257.06;;;7.86;54.32
70229;BME280;57617;51.988;5.854;2023-03-16T02:01:10;101254.97;;;7.88;53.72
70229;BME280;57617;51.988;5.854;2023-03-16T02:03:37;101252.25;;;7.88;54.02
70229;BME280;57617;51.988;5.854;2023-03-16T02:06:08;101255.19;;;7.86;53.95
70229;BME280;57617;51.988;5.854;2023-03-16T02:08:36;101253.97;;;7.76;54.83
70229;BME280;57617;51.988;5.854;2023-03-16T02:11:03;101250.22;;;7.77;53.81
70229;BME280;57617;51.988;5.854;2023-03-16T02:13:29;101254.81;;;7.70;54.36
70229;BME280;57617;51.988;5.854;2023-03-16T02:15:58;101247.50;;;7.70;54.41
70229;BME280;57617;51.988;5.854;2023-03-16T02:18:23;101227.13;;;7.74;53.85
70229;BME280;57617;51.988;5.854;2023-03-16T02:23:25;101226.91;;;7.82;53.75
70229;BME280;57617;51.988;5.854;2023-03-16T02:26:02;101231.91;;;7.79;54.26
70229;BME280;57617;51.988;5.854;2023-03-16T02:31:18;101226.91;;;7.82;54.12
70229;BME280;57617;51.988;5.854;2023-03-16T02:33:44;101217.16;;;7.81;53.63
70229;BME280;57617;51.988;5.854;2023-03-16T02:36:13;101221.09;;;7.79;54.57
70229;BME280;57617;51.988;5.854;2023-03-16T02:38:39;101208.19;;;7.81;54.18
70229;BME280;57617;51.988;5.854;2023-03-16T02:41:13;101215.69;;;7.79;54.51
70229;BME280;57617;51.988;5.854;2023-03-16T02:43:45;101207.59;;;7.79;53.92
70229;BME280;57617;51.988;5.854;2023-03-16T02:46:12;101216.09;;;7.82;54.28
70229;BME280;57617;51.988;5.854;2023-03-16T02:48:58;101213.59;;;7.81;54.61
70229;BME280;57617;51.988;5.854;2023-03-16T02:51:27;101221.72;;;7.81;54.37
70229;BME280;57617;51.988;5.854;2023-03-16T02:53:53;101219.84;;;7.81;53.49
70229;BME280;57617;51.988;5.854;2023-03-16T02:56:18;101205.31;;;7.69;54.64
70229;BME280;57617;51.988;5.854;2023-03-16T02:58:43;101209.44;;;7.78;54.60
70229;BME280;57617;51.988;5.854;2023-03-16T03:01:08;101215.03;;;7.83;54.07
70229;BME280;57617;51.988;5.854;2023-03-16T03:03:34;101221.31;;;7.77;54.64
70229;BME280;57617;51.988;5.854;2023-03-16T03:05:59;101210.69;;;7.76;54.74
70229;BME280;57617;51.988;5.854;2023-03-16T03:08:25;101209.84;;;7.75;54.48
70229;BME280;57617;51.988;5.854;2023-03-16T03:10:51;101211.50;;;7.83;55.20
70229;BME280;57617;51.988;5.854;2023-03-16T03:13:16;101201.94;;;7.87;54.46
70229;BME280;57617;51.988;5.854;2023-03-16T03:15:42;101206.06;;;7.89;54.42
70229;BME280;57617;51.988;5.854;2023-03-16T03:18:07;101212.13;;;7.91;54.62
70229;BME280;57617;51.988;5.854;2023-03-16T03:20:33;101213.31;;;7.95;54.76
70229;BME280;57617;51.988;5.854;2023-03-16T03:22:58;101211.28;;;7.91;55.22
70229;BME280;57617;51.988;5.854;2023-03-16T03:25:24;101202.31;;;7.90;54.49
70229;BME280;57617;51.988;5.854;2023-03-16T03:27:50;101207.53;;;7.92;54.56
70229;BME280;57617;51.988;5.854;2023-03-16T03:30:20;101197.34;;;7.87;54.61
70229;BME280;57617;51.988;5.854;2023-03-16T03:32:46;101196.91;;;7.90;54.49
70229;BME280;57617;51.988;5.854;2023-03-16T03:35:13;101193.59;;;7.88;54.54
70229;BME280;57617;51.988;5.854;2023-03-16T03:37:39;101193.63;;;7.82;55.24
70229;BME280;57617;51.988;5.854;2023-03-16T03:40:07;101191.13;;;7.80;55.05
70229;BME280;57617;51.988;5.854;2023-03-16T03:42:34;101187.41;;;7.75;55.56
70229;BME280;57617;51.988;5.854;2023-03-16T03:44:59;101186.16;;;7.77;55.62
70229;BME280;57617;51.988;5.854;2023-03-16T03:47:25;101190.53;;;7.78;54.97
70229;BME280;57617;51.988;5.854;2023-03-16T03:49:50;101182.41;;;7.78;55.22
70229;BME280;57617;51.988;5.854;2023-03-16T03:52:15;101180.75;;;7.77;55.30
70229;BME280;57617;51.988;5.854;2023-03-16T03:54:41;101180.53;;;7.79;55.67
70229;BME280;57617;51.988;5.854;2023-03-16T03:57:06;101167.84;;;7.79;56.23
70229;BME280;57617;51.988;5.854;2023-03-16T03:59:31;101169.50;;;7.80;55.57
70229;BME280;57617;51.988;5.854;2023-03-16T04:01:57;101170.53;;;7.86;56.27
70229;BME280;57617;51.988;5.854;2023-03-16T04:04:22;101162.22;;;7.87;56.00
70229;BME280;57617;51.988;5.854;2023-03-16T04:06:47;101164.06;;;7.87;56.09
70229;BME280;57617;51.988;5.854;2023-03-16T04:09:15;101154.31;;;7.86;55.95
70229;BME280;57617;51.988;5.854;2023-03-16T04:11:40;101153.47;;;7.85;56.04
70229;BME280;57617;51.988;5.854;2023-03-16T04:14:05;101150.75;;;7.85;56.43
70229;BME280;57617;51.988;5.854;2023-03-16T04:16:31;101147.25;;;7.78;56.20
70229;BME280;57617;51.988;5.854;2023-03-16T04:18:58;101153.91;;;7.82;56.05
70229;BME280;57617;51.988;5.854;2023-03-16T04:21:23;101154.31;;;7.79;56.13
70229;BME280;57617;51.988;5.854;2023-03-16T04:23:49;101148.31;;;7.77;56.83
70229;BME280;57617;51.988;5.854;2023-03-16T04:26:18;101140.00;;;7.79;56.33
70229;BME280;57617;51.988;5.854;2023-03-16T04:28:44;101147.88;;;7.80;57.04
70229;BME280;57617;51.988;5.854;2023-03-16T04:31:09;101148.31;;;7.77;56.96
70229;BME280;57617;51.988;5.854;2023-03-16T04:33:36;101151.44;;;7.74;56.41
70229;BME280;57617;51.988;5.854;2023-03-16T04:36:03;101155.38;;;7.72;57.14
70229;BME280;57617;51.988;5.854;2023-03-16T04:38:30;101150.19;;;7.70;57.17
70229;BME280;57617;51.988;5.854;2023-03-16T04:40:58;101141.06;;;7.65;57.18
70229;BME280;57617;51.988;5.854;2023-03-16T04:43:23;101130.47;;;7.63;57.62
70229;BME280;57617;51.988;5.854;2023-03-16T04:45:49;101141.72;;;7.60;56.89
70229;BME280;57617;51.988;5.854;2023-03-16T04:48:14;101140.50;;;7.50;57.53
70229;BME280;57617;51.988;5.854;2023-03-16T04:50:39;101143.22;;;7.50;57.60
70229;BME280;57617;51.988;5.854;2023-03-16T04:53:05;101139.25;;;7.52;57.44
70229;BME280;57617;51.988;5.854;2023-03-16T04:55:31;101138.22;;;7.47;57.41
70229;BME280;57617;51.988;5.854;2023-03-16T04:57:56;101145.06;;;7.49;57.72
70229;BME280;57617;51.988;5.854;2023-03-16T05:00:22;101144.47;;;7.47;57.70
70229;BME280;57617;51.988;5.854;2023-03-16T05:02:48;101148.41;;;7.45;57.68
70229;BME280;57617;51.988;5.854;2023-03-16T05:05:14;101143.84;;;7.45;57.84
70229;BME280;57617;51.988;5.854;2023-03-16T05:07:40;101139.91;;;7.41;58.04
70229;BME280;57617;51.988;5.854;2023-03-16T05:10:07;101132.19;;;7.45;57.68
70229;BME280;57617;51.988;5.854;2023-03-16T05:12:33;101129.50;;;7.45;58.11
70229;BME280;57617;51.988;5.854;2023-03-16T05:14:58;101127.84;;;7.44;58.46
70229;BME280;57617;51.988;5.854;2023-03-16T05:17:24;101126.81;;;7.45;58.01
70229;BME280;57617;51.988;5.854;2023-03-16T05:19:49;101132.63;;;7.42;58.48
70229;BME280;57617;51.988;5.854;2023-03-16T05:22:15;101129.72;;;7.43;58.37
70229;BME280;57617;51.988;5.854;2023-03-16T05:24:40;101135.75;;;7.45;57.52
70229;BME280;57617;51.988;5.854;2023-03-16T05:27:05;101142.63;;;7.41;58.00
70229;BME280;57617;51.988;5.854;2023-03-16T05:29:31;101137.41;;;7.46;57.51
70229;BME280;57617;51.988;5.854;2023-03-16T05:31:57;101144.88;;;7.44;57.98
70229;BME280;57617;51.988;5.854;2023-03-16T05:34:23;101133.47;;;7.42;57.82
70229;BME280;57617;51.988;5.854;2023-03-16T05:36:48;101131.81;;;7.41;57.60
70229;BME280;57617;51.988;5.854;2023-03-16T05:39:14;101132.41;;;7.43;58.00
70229;BME280;57617;51.988;5.854;2023-03-16T05:41:39;101124.50;;;7.42;58.05
70229;BME280;57617;51.988;5.854;2023-03-16T05:44:05;101128.91;;;7.43;57.34
70229;BME280;57617;51.988;5.854;2023-03-16T05:46:30;101126.81;;;7.45;58.10
70229;BME280;57617;51.988;5.854;2023-03-16T05:48:56;101123.69;;;7.48;57.98
70229;BME280;57617;51.988;5.854;2023-03-16T05:51:21;101128.84;;;7.49;57.93
70229;BME280;57617;51.988;5.854;2023-03-16T05:53:50;101127.84;;;7.50;58.17
70229;BME280;57617;51.988;5.854;2023-03-16T05:56:15;101132.19;;;7.51;57.44
70229;BME280;57617;51.988;5.854;2023-03-16T05:58:41;101129.28;;;7.46;58.19
70229;BME280;57617;51.988;5.854;2023-03-16T06:01:06;101129.91;;;7.48;58.42
70229;BME280;57617;51.988;5.854;2023-03-16T06:03:33;101126.59;;;7.46;58.04
70229;BME280;57617;51.988;5.854;2023-03-16T06:05:58;101124.28;;;7.50;58.37
70229;BME280;57617;51.988;5.854;2023-03-16T06:08:24;101125.75;;;7.52;58.34
70229;BME280;57617;51.988;5.854;2023-03-16T06:10:49;101124.47;;;7.55;57.96
70229;BME280;57617;51.988;5.854;2023-03-16T06:13:14;101129.28;;;7.53;58.91
70229;BME280;57617;51.988;5.854;2023-03-16T06:15:40;101127.38;;;7.53;58.40
70229;BME280;57617;51.988;5.854;2023-03-16T06:18:06;101118.03;;;7.49;59.58
70229;BME280;57617;51.988;5.854;2023-03-16T06:20:31;101117.63;;;7.52;59.71
70229;BME280;57617;51.988;5.854;2023-03-16T06:22:56;101116.56;;;7.53;58.91
70229;BME280;57617;51.988;5.854;2023-03-16T06:25:22;101117.59;;;7.59;58.89
70229;BME280;57617;51.988;5.854;2023-03-16T06:27:48;101106.16;;;7.57;58.97
70229;BME280;57617;51.988;5.854;2023-03-16T06:30:14;101100.38;;;7.53;58.45
70229;BME280;57617;51.988;5.854;2023-03-16T06:32:39;101074.00;;;7.42;59.96
70229;BME280;57617;51.988;5.854;2023-03-16T06:35:06;101115.31;;;7.62;59.16
70229;BME280;57617;51.988;5.854;2023-03-16T06:37:33;101107.00;;;7.64;59.34
70229;BME280;57617;51.988;5.854;2023-03-16T06:39:58;101104.50;;;7.56;59.62
70229;BME280;57617;51.988;5.854;2023-03-16T06:42:24;101110.31;;;7.59;59.35
70229;BME280;57617;51.988;5.854;2023-03-16T06:44:49;101109.91;;;7.62;59.47
70229;BME280;57617;51.988;5.854;2023-03-16T06:47:16;101111.13;;;7.66;58.84
70229;BME280;57617;51.988;5.854;2023-03-16T06:49:41;101107.41;;;7.61;60.38
70229;BME280;57617;51.988;5.854;2023-03-16T06:52:07;101112.00;;;7.60;60.15
70229;BME280;57617;51.988;5.854;2023-03-16T06:54:34;101098.69;;;7.59;59.46
70229;BME280;57617;51.988;5.854;2023-03-16T06:57:01;101100.56;;;7.58;59.84
70229;BME280;57617;51.988;5.854;2023-03-16T06:59:27;101108.25;;;7.61;60.05
70229;BME280;57617;51.988;5.854;2023-03-16T07:01:52;101113.00;;;7.66;61.02
70229;BME280;57617;51.988;5.854;2023-03-16T07:04:17;101111.94;;;7.67;59.95
70229;BME280;57617;51.988;5.854;2023-03-16T07:06:43;101066.75;;;7.43;60.61
70229;BME280;57617;51.988;5.854;2023-03-16T07:09:08;101103.03;;;7.66;60.40
70229;BME280;57617;51.988;5.854;2023-03-16T07:11:33;101106.94;;;7.70;60.67
70229;BME280;57617;51.988;5.854;2023-03-16T07:13:59;101104.06;;;7.65;61.00
70229;BME280;57617;51.988;5.854;2023-03-16T07:16:24;101109.63;;;7.70;61.61
70229;BME280;57617;51.988;5.854;2023-03-16T07:18:49;101107.97;;;7.69;60.55
70229;BME280;57617;51.988;5.854;2023-03-16T07:21:16;101106.13;;;7.70;61.70
70229;BME280;57617;51.988;5.854;2023-03-16T07:23:41;101105.72;;;7.66;62.17
70229;BME280;57617;51.988;5.854;2023-03-16T07:26:07;101110.28;;;7.72;62.12
70229;BME280;57617;51.988;5.854;2023-03-16T07:28:33;101109.00;;;7.75;62.98
70229;BME280;57617;51.988;5.854;2023-03-16T07:30:59;101114.81;;;7.78;61.80
70229;BME280;57617;51.988;5.854;2023-03-16T07:33:24;101112.94;;;7.79;61.83
70229;BME280;57617;51.988;5.854;2023-03-16T07:35:49;101121.66;;;7.81;61.23
70229;BME280;57617;51.988;5.854;2023-03-16T07:38:16;101120.81;;;7.80;61.46
70229;BME280;57617;51.988;5.854;2023-03-16T07:40:41;101121.88;;;7.79;62.15
70229;BME280;57617;51.988;5.854;2023-03-16T07:43:06;101117.50;;;7.78;62.91
70229;BME280;57617;51.988;5.854;2023-03-16T07:45:32;101110.47;;;7.77;62.70
70229;BME280;57617;51.988;5.854;2023-03-16T07:47:57;101106.69;;;7.78;62.44
70229;BME280;57617;51.988;5.854;2023-03-16T07:50:22;101105.22;;;7.82;62.51
70229;BME280;57617;51.988;5.854;2023-03-16T07:52:47;101106.28;;;7.81;62.70
70229;BME280;57617;51.988;5.854;2023-03-16T07:55:13;101106.69;;;7.85;62.71
70229;BME280;57617;51.988;5.854;2023-03-16T07:57:39;101114.59;;;7.86;63.38
70229;BME280;57617;51.988;5.854;2023-03-16T08:00:07;101104.78;;;7.85;63.03
70229;BME280;57617;51.988;5.854;2023-03-16T08:02:33;101103.97;;;7.85;63.53
70229;BME280;57617;51.988;5.854;2023-03-16T08:04:58;101108.31;;;7.86;62.60
70229;BME280;57617;51.988;5.854;2023-03-16T08:07:24;101104.78;;;7.85;62.18
70229;BME280;57617;51.988;5.854;2023-03-16T08:09:50;101101.69;;;7.82;64.23
70229;BME280;57617;51.988;5.854;2023-03-16T08:12:16;101103.75;;;7.86;63.19
70229;BME280;57617;51.988;5.854;2023-03-16T08:14:41;101106.03;;;7.89;63.21
70229;BME280;57617;51.988;5.854;2023-03-16T08:17:09;101093.56;;;7.88;63.62
70229;BME280;57617;51.988;5.854;2023-03-16T08:19:36;101107.06;;;7.88;63.52
70229;BME280;57617;51.988;5.854;2023-03-16T08:22:01;101101.44;;;7.90;63.65
70229;BME280;57617;51.988;5.854;2023-03-16T08:24:28;101100.63;;;7.83;63.36
70229;BME280;57617;51.988;5.854;2023-03-16T08:26:53;101104.53;;;7.93;62.64
70229;BME280;57617;51.988;5.854;2023-03-16T08:29:20;101097.47;;;7.99;63.53
70229;BME280;57617;51.988;5.854;2023-03-16T08:31:45;101099.75;;;7.95;64.76
70229;BME280;57617;51.988;5.854;2023-03-16T08:34:11;101097.22;;;8.00;63.39
70229;BME280;57617;51.988;5.854;2023-03-16T08:36:36;101093.88;;;8.05;64.55
70229;BME280;57617;51.988;5.854;2023-03-16T08:39:05;101087.19;;;8.07;65.78
70229;BME280;57617;51.988;5.854;2023-03-16T08:41:31;101085.66;;;8.18;64.02
70229;BME280;57617;51.988;5.854;2023-03-16T08:43:57;101074.44;;;8.21;64.38
70229;BME280;57617;51.988;5.854;2023-03-16T08:46:22;101081.47;;;8.28;64.08
70229;BME280;57617;51.988;5.854;2023-03-16T08:48:48;101071.47;;;8.29;63.97
70229;BME280;57617;51.988;5.854;2023-03-16T08:51:14;101071.25;;;8.30;64.55
70229;BME280;57617;51.988;5.854;2023-03-16T08:53:39;101073.06;;;8.36;64.05
70229;BME280;57617;51.988;5.854;2023-03-16T08:56:07;101067.81;;;8.41;63.55
70229;BME280;57617;51.988;5.854;2023-03-16T08:58:33;101058.34;;;8.32;63.87
70229;BME280;57617;51.988;5.854;2023-03-16T09:01:00;101064.94;;;8.36;63.69
70229;BME280;57617;51.988;5.854;2023-03-16T09:03:26;101062.03;;;8.38;63.77
70229;BME280;57617;51.988;5.854;2023-03-16T09:05:52;101062.41;;;8.41;63.84
70229;BME280;57617;51.988;5.854;2023-03-16T09:08:18;101066.50;;;8.50;64.50
70229;BME280;57617;51.988;5.854;2023-03-16T09:10:43;101066.28;;;8.52;63.72
70229;BME280;57617;51.988;5.854;2023-03-16T09:13:09;101058.59;;;8.49;63.21
70229;BME280;57617;51.988;5.854;2023-03-16T09:15:35;101068.50;;;8.61;63.60
70229;BME280;57617;51.988;5.854;2023-03-16T09:18:00;101059.94;;;8.64;64.04
70229;BME280;57617;51.988;5.854;2023-03-16T09:20:27;101067.59;;;8.67;63.30
70229;BME280;57617;51.988;5.854;2023-03-16T09:22:54;101067.16;;;8.70;63.07
70229;BME280;57617;51.988;5.854;2023-03-16T09:25:20;101056.72;;;8.74;63.35
70229;BME280;57617;51.988;5.854;2023-03-16T09:27:45;101051.28;;;8.74;63.00
70229;BME280;57617;51.988;5.854;2023-03-16T09:30:11;101050.41;;;8.80;63.02
70229;BME280;57617;51.988;5.854;2023-03-16T09:32:37;101049.75;;;8.84;62.80
70229;BME280;57617;51.988;5.854;2023-03-16T09:35:04;101058.03;;;8.89;62.94
70229;BME280;57617;51.988;5.854;2023-03-16T09:37:30;101068.66;;;8.91;62.69
70229;BME280;57617;51.988;5.854;2023-03-16T09:39:56;101065.03;;;8.97;62.98
70229;BME280;57617;51.988;5.854;2023-03-16T09:42:47;101060.59;;;9.02;63.29
70229;BME280;57617;51.988;5.854;2023-03-16T09:45:31;101057.06;;;9.02;62.84
70229;BME280;57617;51.988;5.854;2023-03-16T09:48:02;101057.22;;;9.07;62.43
70229;BME280;57617;51.988;5.854;2023-03-16T09:50:32;101045.53;;;9.06;62.90
70229;BME280;57617;51.988;5.854;2023-03-16T09:53:05;101043.22;;;9.10;62.58
70229;BME280;57617;51.988;5.854;2023-03-16T09:55:35;101053.84;;;9.11;62.03
70229;BME280;57617;51.988;5.854;2023-03-16T09:58:04;101037.34;;;9.13;62.50
70229;BME280;57617;51.988;5.854;2023-03-16T10:00:50;101053.28;;;9.21;62.64
70229;BME280;57617;51.988;5.854;2023-03-16T10:06:24;101050.66;;;9.32;61.90
70229;BME280;57617;51.988;5.854;2023-03-16T10:09:04;101044.19;;;9.33;62.53
70229;BME280;57617;51.988;5.854;2023-03-16T10:11:35;101037.47;;;9.36;61.85
70229;BME280;57617;51.988;5.854;2023-03-16T10:14:08;101033.41;;;9.45;62.08
70229;BME280;57617;51.988;5.854;2023-03-16T10:17:20;101032.63;;;9.56;62.19
70229;BME280;57617;51.988;5.854;2023-03-16T10:20:01;101031.72;;;9.62;61.69
70229;BME280;57617;51.988;5.854;2023-03-16T10:22:32;101016.19;;;9.69;61.61
70229;BME280;57617;51.988;5.854;2023-03-16T10:27:29;101018.84;;;9.87;61.37
70229;BME280;57617;51.988;5.854;2023-03-16T10:29:55;101015.34;;;9.98;61.02
70229;BME280;57617;51.988;5.854;2023-03-16T10:32:21;101001.91;;;10.03;61.13
70229;BME280;57617;51.988;5.854;2023-03-16T10:34:57;101005.03;;;10.18;61.02
70229;BME280;57617;51.988;5.854;2023-03-16T10:37:25;101006.84;;;10.35;60.69
70229;BME280;57617;51.988;5.854;2023-03-16T10:39:53;101010.63;;;10.46;60.49
70229;BME280;57617;51.988;5.854;2023-03-16T10:42:20;101000.72;;;10.51;60.71
70229;BME280;57617;51.988;5.854;2023-03-16T10:44:46;101001.66;;;10.57;59.34
70229;BME280;57617;51.988;5.854;2023-03-16T10:47:22;100998.34;;;10.66;59.13
70229;BME280;57617;51.988;5.854;2023-03-16T10:49:48;100992.69;;;10.79;59.84
70229;BME280;57617;51.988;5.854;2023-03-16T10:52:38;100984.88;;;10.94;59.04
70229;BME280;57617;51.988;5.854;2023-03-16T10:55:21;100989.69;;;11.04;59.48
70229;BME280;57617;51.988;5.854;2023-03-16T10:57:52;100978.69;;;11.10;59.08
70229;BME280;57617;51.988;5.854;2023-03-16T11:00:28;100974.66;;;11.24;58.33
70229;BME280;57617;51.988;5.854;2023-03-16T11:02:55;100980.41;;;11.39;58.38
70229;BME280;57617;51.988;5.854;2023-03-16T11:05:31;100982.56;;;11.54;58.10
70229;BME280;57617;51.988;5.854;2023-03-16T11:08:10;100974.97;;;11.67;57.26
70229;BME280;57617;51.988;5.854;2023-03-16T11:10:39;100973.19;;;11.73;57.88
70229;BME280;57617;51.988;5.854;2023-03-16T11:13:32;100966.66;;;11.74;56.69
70229;BME280;57617;51.988;5.854;2023-03-16T11:19:11;100967.31;;;11.81;56.71
70229;BME280;57617;51.988;5.854;2023-03-16T11:24:31;100951.03;;;11.97;55.78
70229;BME280;57617;51.988;5.854;2023-03-16T11:27:02;100955.41;;;11.98;56.64
70229;BME280;57617;51.988;5.854;2023-03-16T11:32:17;100944.75;;;12.13;55.90
70229;BME280;57617;51.988;5.854;2023-03-16T11:34:44;100953.09;;;12.23;55.96
70229;BME280;57617;51.988;5.854;2023-03-16T11:42:56;100939.56;;;12.28;55.19
70229;BME280;57617;51.988;5.854;2023-03-16T11:45:40;100919.25;;;12.36;54.81
70229;BME280;57617;51.988;5.854;2023-03-16T11:48:28;100908.09;;;12.37;53.38
70229;BME280;57617;51.988;5.854;2023-03-16T11:51:10;100908.50;;;12.46;54.25
70229;BME280;57617;51.988;5.854;2023-03-16T11:53:55;100904.44;;;12.48;54.01
70229;BME280;57617;51.988;5.854;2023-03-16T11:59:19;100893.31;;;12.50;53.12
70229;BME280;57617;51.988;5.854;2023-03-16T12:02:19;100891.78;;;12.59;53.21
70229;BME280;57617;51.988;5.854;2023-03-16T12:10:57;100899.34;;;12.73;52.59
70229;BME280;57617;51.988;5.854;2023-03-16T12:13:29;100898.50;;;12.73;53.33
70229;BME280;57617;51.988;5.854;2023-03-16T12:16:05;100896.16;;;12.81;52.90
70229;BME280;57617;51.988;5.854;2023-03-16T12:18:53;100881.53;;;12.87;52.10
70229;BME280;57617;51.988;5.854;2023-03-16T12:21:34;100882.16;;;12.94;51.71
70229;BME280;57617;51.988;5.854;2023-03-16T12:24:04;100868.53;;;12.94;52.36
70229;BME280;57617;51.988;5.854;2023-03-16T12:26:35;100867.72;;;12.94;52.34
70229;BME280;57617;51.988;5.854;2023-03-16T12:29:09;100867.09;;;12.87;50.37
70229;BME280;57617;51.988;5.854;2023-03-16T12:31:47;100856.88;;;12.99;51.33
70229;BME280;57617;51.988;5.854;2023-03-16T12:34:40;100860.81;;;13.08;51.23
70229;BME280;57617;51.988;5.854;2023-03-16T12:40:00;100844.00;;;13.42;51.51
70229;BME280;57617;51.988;5.854;2023-03-16T12:48:23;100833.34;;;13.72;49.44
70229;BME280;57617;51.988;5.854;2023-03-16T12:50:56;100830.66;;;13.77;49.91
70229;BME280;57617;51.988;5.854;2023-03-16T12:56:06;100818.25;;;13.96;50.26
70229;BME280;57617;51.988;5.854;2023-03-16T12:58:34;100827.81;;;13.99;49.90
70229;BME280;57617;51.988;5.854;2023-03-16T13:01:00;100822.66;;;14.02;49.07
70229;BME280;57617;51.988;5.854;2023-03-16T13:03:26;100820.19;;;14.01;49.17
70229;BME280;57617;51.988;5.854;2023-03-16T13:05:55;100821.91;;;14.17;48.91
70229;BME280;57617;51.988;5.854;2023-03-16T13:08:22;100803.63;;;14.17;49.20
70229;BME280;57617;51.988;5.854;2023-03-16T13:11:06;100799.63;;;14.25;47.88
70229;BME280;57617;51.988;5.854;2023-03-16T13:13:33;100812.22;;;14.31;48.74
70229;BME280;57617;51.988;5.854;2023-03-16T13:16:03;100794.72;;;14.32;48.88
70229;BME280;57617;51.988;5.854;2023-03-16T13:18:37;100781.91;;;14.37;48.08
70229;BME280;57617;51.988;5.854;2023-03-16T13:21:15;100783.31;;;14.40;48.02
70229;BME280;57617;51.988;5.854;2023-03-16T13:23:56;100776.78;;;14.51;47.95
70229;BME280;57617;51.988;5.854;2023-03-16T13:26:37;100782.78;;;14.53;47.25
70229;BME280;57617;51.988;5.854;2023-03-16T13:29:20;100757.13;;;14.59;48.05
70229;BME280;57617;51.988;5.854;2023-03-16T13:31:47;100751.66;;;14.64;48.41
70229;BME280;57617;51.988;5.854;2023-03-16T13:34:16;100753.06;;;14.71;47.75
70229;BME280;57617;51.988;5.854;2023-03-16T13:36:44;100756.38;;;14.73;47.74
70229;BME280;57617;51.988;5.854;2023-03-16T13:39:17;100746.81;;;14.76;47.38
70229;BME280;57617;51.988;5.854;2023-03-16T13:41:54;100744.09;;;14.81;47.74
70229;BME280;57617;51.988;5.854;2023-03-16T13:44:22;100751.72;;;14.84;47.43
70229;BME280;57617;51.988;5.854;2023-03-16T13:46:48;100747.38;;;14.88;46.82
70229;BME280;57617;51.988;5.854;2023-03-16T13:49:15;100741.88;;;14.83;47.26
70229;BME280;57617;51.988;5.854;2023-03-16T13:51:40;100746.56;;;14.82;47.38
70229;BME280;57617;51.988;5.854;2023-03-16T13:56:45;100736.69;;;14.86;47.06